Time;durP1;ratioP1;P1;durP2;ratioP2;P2;SDS_P1;SDS_P2;PMS_P1;PMS_P2;Temp;Humidity;BMP_temperature;BMP_pressure;BME280_temperature;BME280_humidity;BME280_pressure;Samples;Min_cycle;Max_cycle;Signal;HPM_P1;HPM_P2
2021/12/03 00:01:55;;;;;;;4.00;1.80;;;0.60;99.90;;;;;;5034618;28;20061;-80
2021/12/03 00:04:21;;;;;;;2.78;1.33;;;0.70;99.90;;;;;;5035288;28;20111;-80
2021/12/03 00:06:48;;;;;;;6.43;1.27;;;0.60;99.90;;;;;;5034555;28;20052;-80
2021/12/03 00:09:14;;;;;;;4.22;1.33;;;0.70;99.90;;;;;;5034445;28;20087;-80
2021/12/03 00:11:41;;;;;;;9.77;1.70;;;0.70;99.90;;;;;;5035699;28;20124;-80
2021/12/03 00:14:07;;;;;;;6.63;1.85;;;0.70;99.90;;;;;;5035423;28;20045;-81
2021/12/03 00:16:34;;;;;;;3.60;1.40;;;0.70;99.90;;;;;;5035142;28;20060;-80
2021/12/03 00:19:00;;;;;;;1.58;1.15;;;0.80;99.90;;;;;;5035956;28;20049;-81
2021/12/03 00:21:27;;;;;;;4.18;2.13;;;0.80;99.90;;;;;;5035030;28;20053;-83
2021/12/03 00:23:54;;;;;;;7.53;1.27;;;0.80;99.90;;;;;;5034960;28;20045;-80
2021/12/03 00:26:20;;;;;;;7.53;1.73;;;0.80;99.90;;;;;;5034744;28;20049;-80
2021/12/03 00:28:47;;;;;;;3.50;1.38;;;0.80;99.90;;;;;;5034179;28;20053;-80
2021/12/03 00:31:13;;;;;;;5.10;1.98;;;0.80;99.90;;;;;;5034038;28;20059;-81
2021/12/03 00:33:40;;;;;;;6.10;1.95;;;0.80;99.90;;;;;;5035169;28;20045;-81
2021/12/03 00:36:06;;;;;;;3.45;1.55;;;0.80;99.90;;;;;;5033981;28;20049;-80
2021/12/03 00:38:36;;;;;;;5.97;1.20;;;0.80;99.90;;;;;;5033875;28;20057;-81
2021/12/03 00:41:05;;;;;;;4.22;1.10;;;0.80;99.90;;;;;;5033956;28;20053;-81
2021/12/03 00:43:31;;;;;;;10.55;1.70;;;0.80;99.90;;;;;;5033745;28;20374;-81
2021/12/03 00:46:04;;;;;;;3.80;1.83;;;0.70;99.90;;;;;;5034009;28;20049;-81
2021/12/03 00:48:31;;;;;;;2.08;1.60;;;0.70;99.90;;;;;;5033696;28;20050;-81
2021/12/03 00:50:57;;;;;;;6.45;1.90;;;0.70;99.90;;;;;;5033618;28;20473;-81
2021/12/03 00:53:24;;;;;;;6.63;2.35;;;0.70;99.90;;;;;;5033324;28;20049;-81
2021/12/03 00:55:50;;;;;;;8.07;2.67;;;0.70;99.90;;;;;;5033201;28;20061;-81
2021/12/03 00:58:17;;;;;;;5.95;1.95;;;0.70;99.90;;;;;;5033448;28;20060;-81
2021/12/03 01:00:44;;;;;;;2.15;1.55;;;0.80;99.90;;;;;;5034457;28;20053;-81
2021/12/03 01:03:10;;;;;;;3.47;2.03;;;0.80;99.90;;;;;;5034411;28;20060;-81
2021/12/03 01:05:37;;;;;;;5.57;2.50;;;0.80;99.90;;;;;;5034148;28;20064;-81
2021/12/03 01:08:03;;;;;;;2.40;1.52;;;0.80;99.90;;;;;;5033938;28;20060;-81
2021/12/03 01:10:30;;;;;;;7.28;2.17;;;0.90;99.90;;;;;;5033058;28;20065;-81
2021/12/03 01:12:57;;;;;;;3.83;1.73;;;0.90;99.90;;;;;;5032871;28;20085;-81
2021/12/03 01:15:23;;;;;;;2.28;2.08;;;0.90;99.90;;;;;;5034292;28;20056;-81
2021/12/03 01:17:50;;;;;;;5.25;1.88;;;0.90;99.90;;;;;;5033046;28;20072;-81
2021/12/03 01:20:16;;;;;;;13.82;2.53;;;0.90;99.90;;;;;;5033433;28;20049;-81
2021/12/03 01:22:43;;;;;;;4.72;2.53;;;1.00;99.90;;;;;;5033645;28;20053;-81
2021/12/03 01:25:09;;;;;;;13.75;2.70;;;0.90;99.90;;;;;;5034052;28;20064;-81
2021/12/03 01:27:36;;;;;;;10.18;2.70;;;0.90;99.90;;;;;;5033879;28;20053;-81
2021/12/03 01:30:02;;;;;;;10.57;3.28;;;1.00;99.90;;;;;;5033202;28;20045;-80
2021/12/03 01:32:29;;;;;;;18.83;4.82;;;1.00;99.90;;;;;;5033806;28;20087;-80
2021/12/03 01:34:56;;;;;;;7.72;3.08;;;1.00;99.90;;;;;;5032888;28;20041;-81
2021/12/03 01:37:22;;;;;;;7.78;2.90;;;1.00;99.90;;;;;;5032864;28;20054;-81
2021/12/03 01:39:49;;;;;;;5.07;2.80;;;1.10;99.90;;;;;;5033744;28;20050;-81
2021/12/03 01:42:15;;;;;;;5.72;3.03;;;1.10;99.90;;;;;;5033761;28;20041;-81
2021/12/03 01:44:42;;;;;;;14.57;3.42;;;1.10;99.90;;;;;;5032501;28;20133;-81
2021/12/03 01:47:08;;;;;;;5.38;3.05;;;1.10;99.90;;;;;;5033931;28;20049;-81
2021/12/03 01:49:35;;;;;;;6.70;3.22;;;1.10;99.90;;;;;;5032285;28;20052;-81
2021/12/03 01:52:01;;;;;;;6.00;3.00;;;1.20;99.90;;;;;;5032557;28;20056;-81
2021/12/03 01:54:28;;;;;;;12.05;2.75;;;1.20;99.90;;;;;;5032512;28;20053;-81
2021/12/03 01:56:54;;;;;;;9.20;3.13;;;1.10;99.90;;;;;;5033617;28;20054;-81
2021/12/03 01:59:21;;;;;;;5.88;3.15;;;1.20;99.90;;;;;;5032304;28;20053;-82
2021/12/03 02:01:47;;;;;;;5.20;3.22;;;1.10;99.90;;;;;;5033191;28;20064;-80
2021/12/03 02:04:14;;;;;;;3.75;2.20;;;1.10;99.90;;;;;;5032520;28;20042;-81
2021/12/03 02:06:41;;;;;;;11.48;3.40;;;1.10;99.90;;;;;;5033443;28;20049;-81
2021/12/03 02:09:07;;;;;;;8.98;3.50;;;1.10;99.90;;;;;;5032659;28;20054;-81
2021/12/03 02:11:34;;;;;;;5.70;3.22;;;1.10;99.90;;;;;;5032289;28;20046;-80
2021/12/03 02:14:00;;;;;;;10.30;3.88;;;1.10;99.90;;;;;;5032708;28;20061;-81
2021/12/03 02:16:27;;;;;;;9.57;3.30;;;1.30;99.90;;;;;;5032942;28;20050;-81
2021/12/03 02:18:53;;;;;;;2.53;1.77;;;1.70;99.90;;;;;;5033310;28;20053;-81
2021/12/03 02:21:20;;;;;;;3.85;2.63;;;1.60;99.90;;;;;;5032360;28;20057;-81
2021/12/03 02:23:46;;;;;;;12.65;3.03;;;1.40;99.90;;;;;;5036284;28;20053;-81
2021/12/03 02:26:13;;;;;;;3.35;3.05;;;1.40;99.90;;;;;;5036434;28;20057;-81
2021/12/03 02:28:39;;;;;;;9.32;4.05;;;1.30;99.90;;;;;;5036778;28;20225;-81
2021/12/03 02:31:06;;;;;;;5.70;2.95;;;1.30;99.90;;;;;;5037181;28;20050;-80
2021/12/03 02:33:32;;;;;;;6.47;2.50;;;1.40;99.90;;;;;;5036038;28;20052;-82
2021/12/03 02:35:59;;;;;;;3.05;2.72;;;1.30;99.90;;;;;;5037307;28;20049;-81
2021/12/03 02:38:26;;;;;;;6.68;3.13;;;1.40;99.90;;;;;;5037218;28;20045;-81
2021/12/03 02:40:52;;;;;;;3.92;3.28;;;1.30;99.90;;;;;;5037029;28;20076;-81
2021/12/03 02:43:19;;;;;;;7.03;3.10;;;1.30;99.90;;;;;;5036734;28;20079;-81
2021/12/03 02:45:45;;;;;;;4.28;2.85;;;1.30;99.90;;;;;;5036038;28;20056;-81
2021/12/03 02:48:12;;;;;;;10.23;4.72;;;1.30;99.90;;;;;;5037051;28;20057;-82
2021/12/03 02:50:39;;;;;;;9.90;4.72;;;1.30;99.90;;;;;;5036918;28;20057;-81
2021/12/03 02:53:05;;;;;;;6.10;4.15;;;1.40;99.90;;;;;;5037436;28;20049;-81
2021/12/03 02:55:32;;;;;;;9.45;4.57;;;1.30;99.90;;;;;;5035836;28;20064;-82
2021/12/03 02:57:58;;;;;;;7.13;4.78;;;1.30;99.90;;;;;;5036809;28;20053;-82
2021/12/03 03:00:25;;;;;;;15.38;5.20;;;1.30;99.90;;;;;;5036095;28;20107;-82
2021/12/03 03:02:51;;;;;;;9.30;5.03;;;1.30;99.90;;;;;;5035894;28;20056;-81
2021/12/03 03:05:18;;;;;;;8.82;4.45;;;1.50;99.90;;;;;;5036664;28;20050;-82
2021/12/03 03:07:44;;;;;;;13.40;5.93;;;1.40;99.90;;;;;;5036634;28;20060;-81
2021/12/03 03:10:11;;;;;;;23.75;6.15;;;1.40;99.90;;;;;;5036536;28;20059;-82
2021/12/03 03:12:37;;;;;;;5.90;4.45;;;1.30;99.90;;;;;;5036382;28;20054;-81
2021/12/03 03:15:04;;;;;;;11.52;5.47;;;1.30;99.90;;;;;;5035448;28;20056;-81
2021/12/03 03:17:30;;;;;;;12.23;5.60;;;1.30;99.90;;;;;;5035341;28;20071;-82
2021/12/03 03:19:57;;;;;;;13.35;5.65;;;1.20;99.90;;;;;;5036801;28;20049;-82
2021/12/03 03:22:24;;;;;;;8.38;4.72;;;1.20;99.90;;;;;;5035889;28;20061;-82
2021/12/03 03:24:50;;;;;;;7.57;5.07;;;1.20;99.90;;;;;;5034924;28;20052;-82
2021/12/03 03:27:17;;;;;;;8.82;5.82;;;1.20;99.90;;;;;;5036162;28;20053;-81
2021/12/03 03:29:44;;;;;;;9.80;6.22;;;1.20;99.90;;;;;;5035184;28;20057;-81
2021/12/03 03:32:11;;;;;;;14.02;5.20;;;1.20;99.90;;;;;;5035233;28;20053;-81
2021/12/03 03:34:37;;;;;;;10.30;5.57;;;1.20;99.90;;;;;;5034991;28;20095;-81
2021/12/03 03:37:04;;;;;;;11.52;6.35;;;1.20;99.90;;;;;;5034762;28;20393;-81
2021/12/03 03:39:30;;;;;;;11.88;6.78;;;1.20;99.90;;;;;;5035990;28;20075;-80
2021/12/03 03:41:57;;;;;;;9.18;5.88;;;1.20;99.90;;;;;;5036329;28;20381;-81
2021/12/03 03:44:24;;;;;;;8.13;5.95;;;1.10;99.90;;;;;;5035934;28;20045;-81
2021/12/03 03:46:50;;;;;;;16.48;6.85;;;1.10;99.90;;;;;;5034870;28;20049;-82
2021/12/03 03:49:17;;;;;;;13.40;7.20;;;1.10;99.90;;;;;;5034857;28;20103;-82
2021/12/03 03:51:43;;;;;;;13.48;8.27;;;1.10;99.90;;;;;;5035761;28;20061;-82
2021/12/03 03:54:10;;;;;;;14.07;7.32;;;1.10;99.90;;;;;;5034826;28;20060;-82
2021/12/03 03:56:36;;;;;;;17.02;8.35;;;1.00;99.90;;;;;;5035639;28;20049;-81
2021/12/03 03:59:03;;;;;;;13.07;10.13;;;1.00;99.90;;;;;;5034869;28;20045;-81
2021/12/03 04:01:30;;;;;;;17.48;9.88;;;1.00;99.90;;;;;;5036398;28;20056;-82
2021/12/03 04:03:56;;;;;;;14.80;10.55;;;1.00;99.90;;;;;;5035646;28;20046;-81
2021/12/03 04:06:23;;;;;;;25.02;12.52;;;1.00;99.90;;;;;;5035566;28;20045;-80
2021/12/03 04:08:49;;;;;;;17.83;11.30;;;1.00;99.90;;;;;;5035643;28;20045;-81
2021/12/03 04:11:16;;;;;;;16.20;13.20;;;1.00;99.90;;;;;;5034838;28;20156;-82
2021/12/03 04:13:42;;;;;;;24.83;14.65;;;1.00;99.90;;;;;;5034002;28;20064;-81
2021/12/03 04:16:09;;;;;;;19.63;14.65;;;1.00;99.90;;;;;;5035088;28;20063;-82
2021/12/03 04:18:35;;;;;;;17.98;14.80;;;1.00;99.90;;;;;;5034277;28;20119;-82
2021/12/03 04:21:02;;;;;;;23.30;15.15;;;1.10;99.90;;;;;;5035182;28;20045;-82
2021/12/03 04:23:29;;;;;;;27.55;14.98;;;1.00;99.90;;;;;;5034761;28;20362;-83
2021/12/03 04:25:55;;;;;;;19.65;14.65;;;1.00;99.90;;;;;;5032778;28;20053;-82
2021/12/03 04:28:22;;;;;;;23.70;16.10;;;1.00;99.90;;;;;;5033307;28;20060;-82
2021/12/03 04:30:48;;;;;;;24.10;14.38;;;1.00;99.90;;;;;;5033092;28;20049;-81
2021/12/03 04:33:15;;;;;;;20.05;15.18;;;1.00;99.90;;;;;;5032924;28;20053;-82
2021/12/03 04:35:41;;;;;;;16.45;13.82;;;1.00;99.90;;;;;;5034061;28;20054;-81
2021/12/03 04:38:08;;;;;;;16.73;14.65;;;1.10;99.90;;;;;;5033958;28;20072;-82
2021/12/03 04:40:34;;;;;;;21.67;13.25;;;1.00;99.90;;;;;;5032967;28;20060;-81
2021/12/03 04:43:01;;;;;;;21.92;14.93;;;1.10;99.90;;;;;;5034557;28;20076;-81
2021/12/03 04:45:27;;;;;;;22.80;15.35;;;1.10;99.90;;;;;;5032396;28;20400;-81
2021/12/03 04:47:54;;;;;;;21.00;15.77;;;1.10;99.90;;;;;;5032834;28;20468;-82
2021/12/03 04:50:20;;;;;;;19.88;15.07;;;1.10;99.90;;;;;;5032747;28;20054;-81
2021/12/03 04:52:47;;;;;;;16.88;14.63;;;1.10;99.90;;;;;;5032646;28;20490;-80
2021/12/03 04:55:13;;;;;;;21.75;14.43;;;1.10;99.90;;;;;;5034323;28;20084;-81
2021/12/03 04:57:40;;;;;;;20.65;14.93;;;1.00;99.90;;;;;;5033756;28;20053;-81
2021/12/03 05:00:06;;;;;;;21.75;14.05;;;1.00;99.90;;;;;;5032785;28;20041;-81
2021/12/03 05:02:33;;;;;;;20.90;16.08;;;1.10;99.90;;;;;;5032595;28;20060;-81
2021/12/03 05:05:03;;;;;;;19.67;13.38;;;1.00;99.90;;;;;;5032752;28;20050;-81
2021/12/03 05:07:32;;;;;;;17.95;14.10;;;1.00;99.90;;;;;;5033495;28;20057;-81
2021/12/03 05:09:58;;;;;;;17.95;14.55;;;1.00;99.90;;;;;;5032464;28;20057;-81
2021/12/03 05:12:25;;;;;;;20.25;15.48;;;1.00;99.90;;;;;;5032542;28;20054;-81
2021/12/03 05:14:51;;;;;;;18.80;14.63;;;1.00;99.90;;;;;;5033332;28;20053;-81
2021/12/03 05:17:18;;;;;;;19.02;15.40;;;1.00;99.90;;;;;;5032441;28;20049;-81
2021/12/03 05:19:44;;;;;;;21.55;13.88;;;1.00;99.90;;;;;;5032468;28;20065;-81
2021/12/03 05:22:12;;;;;;;16.77;14.63;;;1.00;99.90;;;;;;4994760;28;1108609;-81
2021/12/03 05:24:38;;;;;;;15.07;13.18;;;1.00;99.90;;;;;;5033443;28;20315;-81
2021/12/03 05:27:05;;;;;;;16.77;14.30;;;0.90;99.90;;;;;;5032871;28;20045;-82
2021/12/03 05:29:31;;;;;;;24.38;14.85;;;0.90;99.90;;;;;;5034743;28;20052;-81
2021/12/03 05:31:58;;;;;;;18.17;13.75;;;1.00;99.90;;;;;;5032894;28;20053;-81
2021/12/03 05:34:24;;;;;;;16.52;13.65;;;1.00;99.90;;;;;;5034100;28;20041;-81
2021/12/03 05:36:51;;;;;;;16.52;12.80;;;1.00;99.90;;;;;;5033087;28;20050;-80
2021/12/03 05:39:18;;;;;;;18.58;13.88;;;1.00;99.90;;;;;;5033978;28;20058;-80
2021/12/03 05:41:44;;;;;;;22.38;14.88;;;1.00;99.90;;;;;;5033439;28;20057;-80
2021/12/03 05:44:11;;;;;;;25.33;15.07;;;1.00;99.90;;;;;;5032736;28;20037;-81
2021/12/03 05:46:37;;;;;;;19.30;15.15;;;0.90;99.90;;;;;;5032950;28;20064;-81
2021/12/03 05:49:04;;;;;;;18.15;15.20;;;0.90;99.90;;;;;;5033541;28;20053;-81
2021/12/03 05:51:30;;;;;;;21.75;15.25;;;1.00;99.90;;;;;;5032820;28;20053;-81
2021/12/03 05:53:57;;;;;;;20.38;15.15;;;0.90;99.90;;;;;;5033760;28;20057;-81
2021/12/03 05:56:23;;;;;;;24.10;15.18;;;0.90;99.90;;;;;;5033303;28;20481;-81
2021/12/03 05:58:50;;;;;;;19.65;14.15;;;0.90;99.90;;;;;;5032179;28;20057;-81
2021/12/03 06:01:16;;;;;;;24.25;13.90;;;1.00;99.90;;;;;;5032268;28;20058;-81
2021/12/03 06:03:43;;;;;;;17.02;13.80;;;1.00;99.90;;;;;;5032737;28;20053;-80
2021/12/03 06:06:09;;;;;;;16.20;13.27;;;0.90;99.90;;;;;;5033495;28;20056;-81
2021/12/03 06:08:36;;;;;;;15.95;14.00;;;1.00;99.90;;;;;;5032845;28;20049;-81
2021/12/03 06:11:03;;;;;;;21.83;13.18;;;1.00;99.90;;;;;;5033410;28;20057;-81
2021/12/03 06:13:29;;;;;;;23.83;14.05;;;1.00;99.90;;;;;;5033418;28;20053;-81
2021/12/03 06:15:56;;;;;;;21.77;13.90;;;1.00;99.90;;;;;;5032381;28;20046;-80
2021/12/03 06:18:22;;;;;;;22.67;13.60;;;1.00;99.90;;;;;;5032467;28;20381;-81
2021/12/03 06:20:49;;;;;;;19.67;12.90;;;1.00;99.90;;;;;;5033141;28;20054;-81
2021/12/03 06:23:15;;;;;;;26.17;12.85;;;1.00;99.90;;;;;;5031518;28;20424;-81
2021/12/03 06:25:42;;;;;;;16.60;12.05;;;1.00;99.90;;;;;;5033328;28;20493;-82
2021/12/03 06:28:09;;;;;;;18.42;13.18;;;1.00;99.90;;;;;;5033352;28;20481;-81
2021/12/03 06:30:35;;;;;;;18.15;12.57;;;1.00;99.90;;;;;;5033185;28;20498;-81
2021/12/03 06:33:03;;;;;;;16.35;11.85;;;1.00;99.90;;;;;;5032884;28;20503;-81
2021/12/03 06:35:29;;;;;;;25.13;13.95;;;1.00;99.90;;;;;;5032590;28;20045;-80
2021/12/03 06:37:56;;;;;;;16.90;13.05;;;1.10;99.90;;;;;;5032191;28;20065;-79
2021/12/03 06:40:22;;;;;;;16.55;12.85;;;1.00;99.90;;;;;;5032050;28;20076;-81
2021/12/03 06:42:49;;;;;;;18.15;13.82;;;1.10;99.90;;;;;;5032362;28;20060;-81
2021/12/03 06:45:15;;;;;;;17.55;13.07;;;1.10;99.90;;;;;;5033655;28;20049;-81
2021/12/03 06:47:42;;;;;;;16.33;12.43;;;1.10;99.90;;;;;;5032416;28;20531;-81
2021/12/03 06:50:09;;;;;;;21.90;13.82;;;1.10;99.90;;;;;;5033027;28;20057;-81
2021/12/03 06:52:38;;;;;;;13.93;12.30;;;1.10;99.90;;;;;;5031950;28;20053;-81
2021/12/03 06:55:05;;;;;;;15.35;12.20;;;1.10;99.90;;;;;;5032226;28;20053;-81
2021/12/03 06:57:32;;;;;;;15.25;13.38;;;1.10;99.90;;;;;;5032920;28;20141;-81
2021/12/03 06:59:58;;;;;;;15.85;12.00;;;1.10;99.90;;;;;;5032152;28;20049;-78
2021/12/03 07:02:25;;;;;;;18.25;12.73;;;1.10;99.90;;;;;;5032080;28;20042;-81
2021/12/03 07:04:51;;;;;;;17.33;13.40;;;1.10;99.90;;;;;;5032241;28;20041;-81
2021/12/03 07:07:18;;;;;;;17.60;13.85;;;1.10;99.90;;;;;;5032595;28;20130;-81
2021/12/03 07:09:44;;;;;;;18.40;13.27;;;1.10;99.90;;;;;;5035701;28;20049;-81
2021/12/03 07:12:13;;;;;;;13.93;12.10;;;1.10;99.90;;;;;;5035350;28;20067;-81
2021/12/03 07:14:40;;;;;;;25.98;13.90;;;1.10;99.90;;;;;;5035174;28;20473;-81
2021/12/03 07:17:06;;;;;;;16.25;11.60;;;1.10;99.90;;;;;;5035282;28;20046;-81
2021/12/03 07:19:33;;;;;;;18.13;12.77;;;1.10;99.90;;;;;;5035335;28;20046;-81
2021/12/03 07:22:00;;;;;;;15.40;11.43;;;1.20;99.90;;;;;;5036000;28;20063;-80
2021/12/03 07:24:26;;;;;;;17.08;12.98;;;1.20;99.90;;;;;;5036167;28;20041;-82
2021/12/03 07:26:53;;;;;;;18.55;12.32;;;1.20;99.90;;;;;;5035066;28;20054;-82
2021/12/03 07:29:19;;;;;;;21.65;12.65;;;1.30;99.90;;;;;;5035744;28;20053;-81
2021/12/03 07:31:46;;;;;;;22.45;13.07;;;1.30;99.90;;;;;;5036266;28;20061;-82
2021/12/03 07:34:14;;;;;;;15.88;12.45;;;1.30;99.90;;;;;;5035944;28;20057;-81
2021/12/03 07:36:41;;;;;;;16.20;12.07;;;1.30;99.90;;;;;;5035102;28;20053;-82
2021/12/03 07:39:07;;;;;;;19.65;13.10;;;1.30;99.90;;;;;;5034855;28;20400;-81
2021/12/03 07:41:35;;;;;;;17.70;13.07;;;1.30;99.90;;;;;;5035003;28;20477;-82
2021/12/03 07:44:02;;;;;;;22.70;14.02;;;1.40;99.90;;;;;;5035085;28;20092;-80
2021/12/03 07:46:28;;;;;;;21.98;13.13;;;1.40;99.90;;;;;;5035910;28;20064;-81
2021/12/03 07:48:55;;;;;;;16.85;12.32;;;1.40;99.90;;;;;;5035827;28;20049;-81
2021/12/03 07:51:22;;;;;;;17.77;13.23;;;1.30;99.90;;;;;;5035460;28;20463;-81
2021/12/03 07:53:48;;;;;;;24.15;14.45;;;1.30;99.90;;;;;;5035721;28;20053;-81
2021/12/03 07:56:15;;;;;;;16.65;13.57;;;1.30;99.90;;;;;;5035691;28;20057;-81
2021/12/03 07:58:41;;;;;;;23.52;13.63;;;1.40;99.90;;;;;;5034616;28;20046;-81
2021/12/03 08:01:08;;;;;;;16.17;14.40;;;1.30;99.90;;;;;;5035284;28;20412;-80
2021/12/03 08:03:34;;;;;;;16.35;13.05;;;1.30;99.90;;;;;;5034559;28;20473;-81
2021/12/03 08:06:06;;;;;;;19.13;12.25;;;1.30;99.90;;;;;;5034561;28;20060;-81
2021/12/03 08:08:33;;;;;;;26.95;14.00;;;1.30;99.90;;;;;;5036064;28;20541;-81
2021/12/03 08:10:59;;;;;;;18.33;13.15;;;1.40;99.90;;;;;;5036090;28;20061;-81
2021/12/03 08:13:26;;;;;;;20.88;13.77;;;1.40;99.90;;;;;;5035292;28;20049;-81
2021/12/03 08:15:53;;;;;;;23.90;14.02;;;1.40;99.90;;;;;;5034401;28;20053;-81
2021/12/03 08:18:20;;;;;;;30.30;16.05;;;1.40;99.90;;;;;;5034215;28;20077;-80
2021/12/03 08:20:46;;;;;;;21.73;15.23;;;1.40;99.90;;;;;;5033612;28;20053;-81
2021/12/03 08:23:13;;;;;;;21.90;14.45;;;1.50;99.90;;;;;;5033266;28;20089;-80
2021/12/03 08:25:39;;;;;;;21.70;15.68;;;1.50;99.90;;;;;;5034254;28;20076;-81
2021/12/03 08:28:07;;;;;;;21.73;15.30;;;1.50;99.90;;;;;;5035071;28;20053;-79
2021/12/03 08:30:33;;;;;;;21.15;14.07;;;1.50;99.90;;;;;;5035792;28;20055;-80
2021/12/03 08:33:00;;;;;;;22.85;15.75;;;1.50;99.90;;;;;;5034710;28;20060;-81
2021/12/03 08:35:26;;;;;;;18.92;14.40;;;1.50;99.90;;;;;;5035080;28;20466;-81
2021/12/03 08:37:53;;;;;;;26.00;16.58;;;1.50;99.90;;;;;;5035633;28;20045;-80
2021/12/03 08:40:20;;;;;;;20.13;15.77;;;1.50;99.90;;;;;;5033751;28;20384;-80
2021/12/03 08:42:46;;;;;;;24.20;16.20;;;1.60;99.90;;;;;;5035010;28;20060;-81
2021/12/03 08:45:13;;;;;;;31.10;15.68;;;1.50;99.90;;;;;;5034701;28;20132;-80
2021/12/03 08:47:40;;;;;;;19.88;14.77;;;1.60;99.90;;;;;;5034738;28;20053;-80
2021/12/03 08:50:11;;;;;;;18.48;13.45;;;1.70;99.90;;;;;;5034744;28;20055;-80
2021/12/03 08:55:18;;;;;;;23.17;15.30;;;1.70;99.90;;;;;;5029980;28;20045;-81
2021/12/03 08:57:44;;;;;;;22.67;16.10;;;1.70;99.90;;;;;;5034553;28;20053;-80
2021/12/03 09:00:12;;;;;;;25.83;17.73;;;1.80;99.90;;;;;;5034388;28;20128;-80
2021/12/03 09:02:38;;;;;;;30.48;18.42;;;1.80;99.90;;;;;;5033434;28;20527;-80
2021/12/03 09:05:05;;;;;;;28.45;18.35;;;1.80;99.90;;;;;;5033146;28;20057;-80
2021/12/03 09:07:31;;;;;;;27.27;17.92;;;1.80;99.90;;;;;;5035062;28;20065;-80
2021/12/03 09:09:58;;;;;;;28.38;19.75;;;1.80;99.90;;;;;;5033342;28;20140;-82
2021/12/03 09:12:24;;;;;;;33.70;19.13;;;1.90;99.90;;;;;;5034263;28;20053;-81
2021/12/03 09:14:53;;;;;;;29.40;20.10;;;1.90;99.90;;;;;;5033014;28;20049;-81
2021/12/03 09:17:33;;;;;;;32.42;20.05;;;1.90;99.90;;;;;;5033821;28;20057;-80
2021/12/03 09:20:05;;;;;;;34.67;19.45;;;2.00;99.90;;;;;;5032956;28;20496;-80
2021/12/03 09:22:38;;;;;;;36.17;21.70;;;2.00;99.90;;;;;;5032534;28;20069;-79
2021/12/03 09:25:05;;;;;;;34.13;22.50;;;2.00;99.90;;;;;;5033742;28;20422;-80
2021/12/03 09:27:31;;;;;;;36.67;23.52;;;2.00;99.90;;;;;;5034099;28;20465;-80
2021/12/03 09:29:58;;;;;;;38.65;22.40;;;2.00;99.90;;;;;;5033554;28;20503;-80
2021/12/03 09:32:27;;;;;;;42.53;22.27;;;2.00;99.90;;;;;;5033912;28;20053;-80
2021/12/03 09:34:54;;;;;;;33.25;22.02;;;2.00;99.90;;;;;;5033388;28;20045;-80
2021/12/03 09:37:21;;;;;;;41.60;22.45;;;2.00;99.90;;;;;;5033100;28;20045;-80
2021/12/03 09:39:47;;;;;;;36.75;25.15;;;2.10;99.90;;;;;;5033304;28;20061;-80
2021/12/03 09:42:14;;;;;;;44.85;23.90;;;2.10;99.90;;;;;;5032372;28;20060;-79
2021/12/03 09:44:41;;;;;;;40.10;24.85;;;2.10;99.90;;;;;;5032152;28;20053;-80
2021/12/03 09:47:08;;;;;;;33.20;24.38;;;2.10;99.90;;;;;;5032666;28;20057;-80
2021/12/03 09:49:35;;;;;;;37.38;25.67;;;2.10;99.90;;;;;;5033680;28;20052;-80
2021/12/03 09:52:08;;;;;;;40.22;26.65;;;2.10;99.90;;;;;;5032970;28;20045;-79
2021/12/03 09:54:43;;;;;;;39.45;23.08;;;2.10;99.90;;;;;;5032625;28;20053;-80
2021/12/03 09:57:11;;;;;;;40.20;24.73;;;2.20;99.90;;;;;;5033226;28;20049;-80
2021/12/03 10:05:32;;;;;;;43.42;27.08;;;2.30;99.90;;;;;;5031181;28;20097;-80
2021/12/03 10:13:32;;;;;;;50.85;28.15;;;2.40;99.90;;;;;;5032902;28;20053;-80
2021/12/03 10:16:06;;;;;;;48.05;27.48;;;2.40;99.90;;;;;;5032027;28;20049;-80
2021/12/03 10:18:34;;;;;;;54.60;26.40;;;2.40;99.90;;;;;;5031818;28;20111;-80
2021/12/03 10:21:09;;;;;;;44.45;27.08;;;2.40;99.90;;;;;;5032736;28;20071;-80
2021/12/03 10:24:12;;;;;;;54.67;26.55;;;2.50;99.90;;;;;;5033290;28;20140;-80
2021/12/03 10:29:32;;;;;;;42.05;25.63;;;2.60;99.90;;;;;;5033112;28;20061;-80
2021/12/03 10:32:27;;;;;;;54.90;26.45;;;2.50;99.90;;;;;;5032727;28;20495;-80
2021/12/03 10:35:11;;;;;;;48.67;25.67;;;2.60;99.90;;;;;;5032253;28;20049;-80
2021/12/03 10:40:38;;;;;;;50.08;25.23;;;2.60;99.90;;;;;;5032076;28;20132;-80
2021/12/03 10:45:59;;;;;;;42.03;23.88;;;2.60;99.90;;;;;;5034289;28;20158;-80
2021/12/03 10:48:33;;;;;;;49.75;25.40;;;2.70;99.90;;;;;;5036627;28;20485;-80
2021/12/03 10:51:15;;;;;;;43.33;25.35;;;2.70;99.90;;;;;;5037042;28;20056;-80
2021/12/03 10:53:47;;;;;;;46.53;24.20;;;2.70;99.90;;;;;;5036660;28;20061;-80
2021/12/03 11:30:00;;;;;;;42.05;19.38;;;2.90;99.90;;;;;;5137157;27;20055;-79
2021/12/03 12:25:27;;;;;;;13.73;7.38;;;2.80;99.90;;;;;;5141972;27;20070;-79
2021/12/03 13:16:03;;;;;;;10.27;6.18;;;2.70;99.90;;;;;;5047807;28;20135;-80
2021/12/03 14:05:53;;;;;;;12.35;8.43;;;2.90;99.90;;;;;;5140968;27;20062;-79
2021/12/03 14:41:31;;;;;;;13.13;8.55;;;3.00;99.90;;;;;;5083260;27;20053;-80
2021/12/03 14:44:09;;;;;;;17.40;9.23;;;3.00;99.90;;;;;;5139177;27;20043;-80
2021/12/03 14:47:00;;;;;;;12.27;8.95;;;3.00;99.90;;;;;;5116906;27;20059;-79
2021/12/03 14:52:22;;;;;;;18.00;7.10;;;3.00;99.90;;;;;;5122465;27;20055;-80
2021/12/03 14:54:54;;;;;;;18.55;8.73;;;3.00;99.90;;;;;;5139285;27;20051;-80
2021/12/03 15:00:18;;;;;;;13.30;8.85;;;3.10;99.90;;;;;;5104019;27;20054;-80
2021/12/03 15:03:01;;;;;;;17.48;9.15;;;3.00;99.90;;;;;;5138168;27;20051;-80
2021/12/03 15:05:35;;;;;;;10.80;7.32;;;3.10;99.90;;;;;;5119610;27;20043;-79
2021/12/03 15:08:05;;;;;;;17.58;8.27;;;3.10;99.90;;;;;;5138610;27;20043;-80
2021/12/03 15:10:41;;;;;;;20.13;8.98;;;3.20;99.90;;;;;;5126122;27;20042;-81
2021/12/03 15:19:11;;;;;;;15.73;8.43;;;3.20;99.90;;;;;;5111320;27;20047;-81
2021/12/03 15:24:55;;;;;;;12.55;8.10;;;3.30;99.90;;;;;;5133586;27;20057;-80
2021/12/03 15:30:24;;;;;;;11.93;7.90;;;3.40;99.90;;;;;;5102296;27;20048;-80
2021/12/03 15:32:55;;;;;;;13.70;7.85;;;3.40;99.90;;;;;;5120645;27;20050;-80
2021/12/03 15:35:24;;;;;;;15.75;8.60;;;3.50;99.90;;;;;;5122779;28;20054;-80
2021/12/03 15:57:30;;;;;;;16.05;8.45;;;3.70;99.90;;;;;;5054511;28;20053;-79
2021/12/03 16:05:49;;;;;;;12.10;8.25;;;3.80;99.90;;;;;;5073694;27;20111;-79
2021/12/03 16:08:17;;;;;;;10.55;8.50;;;3.70;99.90;;;;;;5124913;27;20450;-79
2021/12/03 16:10:51;;;;;;;11.27;9.10;;;3.70;99.90;;;;;;5127867;27;20521;-79
2021/12/03 16:13:27;;;;;;;24.27;9.85;;;3.80;99.90;;;;;;5141206;27;20139;-79
2021/12/03 16:18:57;;;;;;;20.90;9.15;;;3.80;99.90;;;;;;5136933;27;20503;-78
2021/12/03 16:27:27;;;;;;;13.38;9.80;;;3.80;99.90;;;;;;5066518;28;20044;-80
2021/12/03 16:43:54;;;;;;;19.77;11.68;;;3.80;99.90;;;;;;5091002;28;20493;-80
2021/12/03 16:46:35;;;;;;;16.02;11.20;;;3.80;99.90;;;;;;5072832;28;20064;-80
2021/12/03 16:51:51;;;;;;;19.50;13.18;;;3.80;99.90;;;;;;5006850;28;20077;-80
2021/12/03 16:54:21;;;;;;;18.27;14.65;;;3.80;99.90;;;;;;5075404;28;20060;-80
2021/12/03 16:56:50;;;;;;;14.40;11.98;;;3.80;99.90;;;;;;5076254;28;20485;-79
2021/12/03 16:59:16;;;;;;;16.58;12.25;;;3.80;99.90;;;;;;5076930;28;20064;-79
2021/12/03 17:01:46;;;;;;;23.40;12.43;;;3.80;99.90;;;;;;5069968;28;20630;-80
2021/12/03 17:04:27;;;;;;;18.77;12.43;;;3.80;99.90;;;;;;5064910;28;20084;-80
2021/12/03 17:10:08;;;;;;;13.90;12.45;;;3.80;99.90;;;;;;5078632;28;20494;-80
2021/12/03 17:12:50;;;;;;;24.20;12.30;;;3.70;99.90;;;;;;5080689;28;20050;-80
2021/12/03 17:51:06;;;;;;;20.30;14.00;;;3.90;99.90;;;;;;5053675;28;20051;-80
2021/12/03 17:56:24;;;;;;;22.85;16.38;;;3.80;99.90;;;;;;5041000;28;20403;-80
2021/12/03 17:58:53;;;;;;;21.30;16.02;;;3.80;99.90;;;;;;5057511;28;20108;-79
2021/12/03 18:01:23;;;;;;;21.42;15.73;;;3.80;99.90;;;;;;5063976;28;20044;-80
2021/12/03 18:03:55;;;;;;;18.83;14.52;;;3.90;99.90;;;;;;5056526;28;20045;-80
2021/12/03 18:09:19;;;;;;;19.05;15.57;;;3.90;99.90;;;;;;5055858;28;20186;-80
2021/12/03 18:12:17;;;;;;;18.48;15.20;;;3.90;99.90;;;;;;5056078;28;20074;-79
2021/12/03 18:45:13;;;;;;;24.02;19.08;;;3.90;99.90;;;;;;5061185;28;20415;-79
2021/12/03 18:56:15;;;;;;;33.25;20.92;;;4.00;99.90;;;;;;5053429;28;20045;-79
2021/12/03 18:58:42;;;;;;;33.13;18.48;;;4.00;99.90;;;;;;5051919;28;20057;-80
2021/12/03 19:01:11;;;;;;;25.92;18.55;;;4.00;99.90;;;;;;5064753;28;20542;-80
2021/12/03 19:03:49;;;;;;;25.13;19.48;;;4.00;99.90;;;;;;5051498;28;20889;-79
2021/12/03 19:06:21;;;;;;;29.17;19.30;;;4.00;99.90;;;;;;5057631;28;20072;-80
2021/12/03 19:08:50;;;;;;;28.60;19.15;;;4.00;99.90;;;;;;5054629;28;20096;-80
2021/12/03 19:11:21;;;;;;;25.27;18.85;;;4.00;99.90;;;;;;5064334;28;20802;-80
2021/12/03 19:13:47;;;;;;;25.30;19.05;;;4.00;99.90;;;;;;5060906;28;20054;-80
2021/12/03 19:16:16;;;;;;;31.45;20.42;;;4.10;99.90;;;;;;5050884;28;20059;-80
2021/12/03 19:18:45;;;;;;;27.38;19.63;;;4.00;99.90;;;;;;5058001;28;20060;-80